Terminal Aerodrome Forecast
Issued by NWS

Home | Current Version | Previous Version | Text Only | Print | Product List | Glossary On
Versions: 1 2 3 4 5 6 7 8 9 10 11 12 13 14 15
929
FTPA31 PHFO 291507 AAA
TAFHMK
TAF AMD
PHMK 291507Z 2915/3012 05011KT P6SM SCT025 BKN045
      TEMPO 2915/2919 BKN025
     FM291900 05016G24KT P6SM FEW045
     FM300600 05011G18KT P6SM SCT045=

USA.gov is the U.S. government's official web portal to all federal, state and local government web resources and services.